createdAt,value
2023-02-02T00:00:38.331Z,2.40
2023-02-02T00:06:01.173Z,2.41
2023-02-02T00:11:04.431Z,2.43
2023-02-02T00:16:26.025Z,2.43
2023-02-02T00:21:29.188Z,2.41
2023-02-02T00:26:32.141Z,2.39
2023-02-02T00:31:35.025Z,2.35
2023-02-02T00:36:37.899Z,2.32
2023-02-02T00:41:40.575Z,2.31
2023-02-02T00:46:43.328Z,2.29
2023-02-02T00:51:45.982Z,2.27
2023-02-02T00:56:48.695Z,2.25
2023-02-02T01:01:51.507Z,2.25
2023-02-02T01:06:54.260Z,2.15
2023-02-02T01:11:57.421Z,2.00
2023-02-02T01:17:00.139Z,1.87
2023-02-02T01:22:03.637Z,1.73
2023-02-02T01:27:06.607Z,1.59
2023-02-02T01:32:09.321Z,1.52
2023-02-02T01:37:11.987Z,1.44
2023-02-02T01:42:23.349Z,1.39
2023-02-02T01:47:29.908Z,1.35
2023-02-02T01:52:34.733Z,1.34
2023-02-02T01:57:45.425Z,1.37
2023-02-02T02:02:49.376Z,1.42
2023-02-02T02:07:56.473Z,1.47
2023-02-02T02:12:59.355Z,1.54
2023-02-02T02:18:20.419Z,1.57
2023-02-02T02:24:09.141Z,1.64
2023-02-02T02:29:53.563Z,1.72
2023-02-02T02:35:17.561Z,1.76
2023-02-02T02:40:35.312Z,1.83
2023-02-02T02:45:39.247Z,1.89
2023-02-02T02:50:42.144Z,1.94
2023-02-02T02:56:09.381Z,2.00
2023-02-02T03:01:21.972Z,2.05
2023-02-02T03:06:47.869Z,2.11
2023-02-02T03:11:50.618Z,2.18
2023-02-02T03:16:53.804Z,2.24
2023-02-02T03:21:56.559Z,2.32
2023-02-02T03:26:59.263Z,2.37
2023-02-02T03:32:02.015Z,2.40
2023-02-02T03:37:04.720Z,2.43
2023-02-02T03:42:07.405Z,2.48
2023-02-02T03:47:10.060Z,2.52
2023-02-02T03:52:12.800Z,2.57
2023-02-02T03:57:15.505Z,2.59
2023-02-02T04:02:18.181Z,2.61
2023-02-02T04:07:20.997Z,2.62
2023-02-02T04:12:23.781Z,2.63
2023-02-02T04:17:26.495Z,2.65
2023-02-02T04:22:29.196Z,2.66
2023-02-02T04:27:34.105Z,2.65
2023-02-02T04:32:36.916Z,2.65
2023-02-02T04:37:39.591Z,2.68
2023-02-02T04:42:42.245Z,2.71
2023-02-02T04:47:44.913Z,2.71
2023-02-02T04:52:47.641Z,2.71
2023-02-02T04:57:50.753Z,2.71
2023-02-02T05:02:53.464Z,2.71
2023-02-02T05:07:56.166Z,2.71
2023-02-02T05:12:58.874Z,2.70
2023-02-02T05:18:01.759Z,2.67
2023-02-02T05:23:04.467Z,2.64
2023-02-02T05:28:07.145Z,2.63
2023-02-02T05:33:10.460Z,2.63
2023-02-02T05:38:13.681Z,2.64
2023-02-02T05:43:16.399Z,2.63
2023-02-02T05:48:19.453Z,2.61
2023-02-02T05:53:22.156Z,2.58
2023-02-02T05:58:25.943Z,2.53
2023-02-02T06:03:28.804Z,2.50
2023-02-02T06:08:31.616Z,2.48
2023-02-02T06:13:35.535Z,2.49
2023-02-02T06:18:38.306Z,2.46
2023-02-02T06:23:46.141Z,2.46
2023-02-02T06:28:51.386Z,2.45
2023-02-02T06:33:57.085Z,2.47
2023-02-02T06:39:00.113Z,2.49
2023-02-02T06:44:03.373Z,2.47
2023-02-02T06:49:06.021Z,2.50
2023-02-02T06:54:08.681Z,2.51
2023-02-02T06:59:11.354Z,2.52
2023-02-02T07:04:14.095Z,2.52
2023-02-02T07:09:16.898Z,2.51
2023-02-02T07:14:19.611Z,2.52
2023-02-02T07:19:22.312Z,2.51
2023-02-02T07:24:25.028Z,2.53
2023-02-02T07:29:27.769Z,2.49
2023-02-02T07:34:30.434Z,2.42
2023-02-02T07:39:33.096Z,2.38
2023-02-02T07:44:35.792Z,2.37
2023-02-02T07:49:38.491Z,2.40
2023-02-02T07:54:41.598Z,2.45
2023-02-02T07:59:44.293Z,2.46
2023-02-02T08:04:47.715Z,2.46
2023-02-02T08:09:51.841Z,2.45
2023-02-02T08:14:54.546Z,2.47
2023-02-02T08:19:57.356Z,2.54
2023-02-02T08:25:00.038Z,2.64
2023-02-02T08:30:02.759Z,2.78
2023-02-02T08:35:06.179Z,2.89
2023-02-02T08:40:10.116Z,2.93
2023-02-02T08:46:03.132Z,2.91
2023-02-02T08:50:36.025Z,2.89
2023-02-02T08:55:38.711Z,2.90
2023-02-02T09:00:41.617Z,2.88
2023-02-02T09:05:44.573Z,2.86
2023-02-02T09:10:47.261Z,2.83
2023-02-02T09:15:49.963Z,2.81
2023-02-02T09:20:52.772Z,2.81
2023-02-02T09:25:55.575Z,2.82
2023-02-02T09:31:01.564Z,2.87
2023-02-02T09:36:12.138Z,2.97
2023-02-02T09:41:39.741Z,3.08
2023-02-02T09:47:04.640Z,3.10
2023-02-02T09:52:14.453Z,3.07
2023-02-02T09:57:22.592Z,3.13
2023-02-02T10:02:33.450Z,3.25
2023-02-02T10:07:41.459Z,3.47
2023-02-02T10:12:56.242Z,3.64
2023-02-02T10:18:08.859Z,3.67
2023-02-02T10:23:15.651Z,3.80
2023-02-02T10:28:20.514Z,3.98
2023-02-02T10:34:02.527Z,4.13
2023-02-02T10:39:36.059Z,4.26
2023-02-02T10:44:51.134Z,4.25
2023-02-02T10:50:19.273Z,4.22
2023-02-02T10:55:32.987Z,4.31
2023-02-02T11:00:52.829Z,4.39
2023-02-02T11:06:18.578Z,4.44
2023-02-02T11:11:25.083Z,4.93
2023-02-02T11:16:42.227Z,5.35
2023-02-02T11:21:48.774Z,5.67
2023-02-02T11:27:17.773Z,5.45
2023-02-02T11:32:33.111Z,5.16
2023-02-02T11:37:52.237Z,4.98
2023-02-02T11:43:01.414Z,4.79
2023-02-02T11:48:22.417Z,4.59
2023-02-02T11:53:35.972Z,4.45
2023-02-02T11:58:56.617Z,4.50
2023-02-02T12:04:02.185Z,4.87
2023-02-02T12:09:14.672Z,6.12
2023-02-02T12:14:37.099Z,5.77
2023-02-02T12:20:06.342Z,5.70
2023-02-02T12:25:15.054Z,7.30
2023-02-02T12:30:41.512Z,10.86
2023-02-02T12:35:52.431Z,13.42
2023-02-02T12:41:20.945Z,13.05
2023-02-02T12:46:42.165Z,10.88
2023-02-02T12:51:57.490Z,8.95
2023-02-02T12:57:24.221Z,8.83
2023-02-02T13:02:57.979Z,9.33
2023-02-02T13:08:11.989Z,8.39
2023-02-02T13:13:14.641Z,8.23
2023-02-02T13:18:23.578Z,7.45
2023-02-02T13:23:35.882Z,6.53
2023-02-02T13:28:45.453Z,5.72
2023-02-02T13:33:57.283Z,5.49
2023-02-02T13:39:03.452Z,5.57
2023-02-02T13:44:18.047Z,5.43
2023-02-02T13:49:29.025Z,5.19
2023-02-02T13:55:04.899Z,5.02
2023-02-02T14:00:16.716Z,5.00
2023-02-02T14:05:41.527Z,4.90
2023-02-02T14:10:53.369Z,4.56
2023-02-02T14:15:58.075Z,4.13
2023-02-02T14:21:00.819Z,3.77
2023-02-02T14:26:09.425Z,3.51
2023-02-02T14:31:29.740Z,3.31
2023-02-02T14:36:32.855Z,3.27
2023-02-02T14:42:16.326Z,3.24
2023-02-02T14:47:46.972Z,3.20
2023-02-02T14:52:59.957Z,3.15
2023-02-02T14:58:06.179Z,3.13
2023-02-02T15:03:37.066Z,3.09
2023-02-02T15:08:39.871Z,3.03
2023-02-02T15:13:48.591Z,3.01
2023-02-02T15:19:04.382Z,2.96
2023-02-02T15:24:18.798Z,2.87
2023-02-02T15:29:38.524Z,2.78
2023-02-02T15:34:45.469Z,2.76
2023-02-02T15:39:52.698Z,2.70
2023-02-02T15:44:55.399Z,2.57
2023-02-02T15:49:59.613Z,2.47
2023-02-02T15:55:02.738Z,2.39
2023-02-02T16:00:44.327Z,2.30
2023-02-02T16:05:57.003Z,2.19
2023-02-02T16:11:14.921Z,2.12
2023-02-02T16:16:26.780Z,2.07
2023-02-02T16:21:31.074Z,2.01
2023-02-02T16:26:35.568Z,1.95
2023-02-02T16:31:38.542Z,1.91
2023-02-02T16:36:41.606Z,1.90
2023-02-02T16:41:47.472Z,1.88
2023-02-02T16:46:50.624Z,1.87
2023-02-02T16:52:18.345Z,1.88
2023-02-02T16:57:34.365Z,1.88
2023-02-02T17:02:40.811Z,1.80
2023-02-02T17:07:51.549Z,1.68
2023-02-02T17:12:54.582Z,1.59
2023-02-02T17:17:57.895Z,1.56
2023-02-02T17:23:09.908Z,1.56
2023-02-02T17:28:16.790Z,1.53
2023-02-02T17:33:19.564Z,1.45
2023-02-02T17:38:24.142Z,1.40
2023-02-02T17:43:27.159Z,1.37
2023-02-02T17:48:29.850Z,1.31
2023-02-02T17:53:33.571Z,1.25
2023-02-02T17:58:36.388Z,1.18
2023-02-02T18:03:41.553Z,1.16
2023-02-02T18:08:45.618Z,1.15
2023-02-02T18:13:48.410Z,1.12
2023-02-02T18:18:51.119Z,1.08
2023-02-02T18:23:53.894Z,1.06
2023-02-02T18:28:56.597Z,1.02
2023-02-02T18:33:59.276Z,1.01
2023-02-02T18:39:01.992Z,1.01
2023-02-02T18:44:04.770Z,1.04
2023-02-02T18:49:07.443Z,1.06
2023-02-02T18:54:12.904Z,1.06
2023-02-02T18:59:15.645Z,1.03
2023-02-02T19:04:18.374Z,1.06
2023-02-02T19:09:22.463Z,1.05
2023-02-02T19:14:34.522Z,0.99
2023-02-02T19:19:39.481Z,0.90
2023-02-02T19:24:43.162Z,0.89
2023-02-02T19:29:47.597Z,0.90
2023-02-02T19:34:55.381Z,0.90
2023-02-02T19:40:08.240Z,0.87
2023-02-02T19:45:26.977Z,0.86
2023-02-02T19:50:38.849Z,0.85
2023-02-02T19:55:43.998Z,0.83
2023-02-02T20:00:49.146Z,0.81
2023-02-02T20:05:53.693Z,0.81
2023-02-02T20:11:02.700Z,0.80
2023-02-02T20:16:06.627Z,0.79
2023-02-02T20:21:38.863Z,0.77
2023-02-02T20:26:41.562Z,0.80
2023-02-02T20:31:46.093Z,0.82
2023-02-02T20:36:49.641Z,0.82
2023-02-02T20:41:54.837Z,0.79
2023-02-02T20:46:58.591Z,0.75
2023-02-02T20:52:03.744Z,0.66
2023-02-02T20:57:06.860Z,0.55
2023-02-02T21:02:18.943Z,0.48
2023-02-02T21:07:22.305Z,0.38
2023-02-02T21:12:25.781Z,0.32
2023-02-02T21:17:28.515Z,0.29
2023-02-02T21:22:31.322Z,0.27
2023-02-02T21:27:34.738Z,0.28
2023-02-02T21:32:37.637Z,0.25
2023-02-02T21:37:40.597Z,0.15
2023-02-02T21:42:48.721Z,0.10
2023-02-02T21:48:22.599Z,0.03
2023-02-02T21:53:27.524Z,-0.06
2023-02-02T21:58:38.412Z,-0.12
2023-02-02T22:03:46.802Z,-0.15
2023-02-02T22:08:50.874Z,-0.18
2023-02-02T22:13:54.111Z,-0.25
2023-02-02T22:18:56.820Z,-0.32
2023-02-02T22:24:00.483Z,-0.34
2023-02-02T22:29:12.409Z,-0.35
2023-02-02T22:34:15.158Z,-0.42
2023-02-02T22:39:17.836Z,-0.49
2023-02-02T22:44:20.758Z,-0.55
2023-02-02T22:49:23.457Z,-0.63
2023-02-02T22:54:26.185Z,-0.68
2023-02-02T22:59:28.879Z,-0.69
2023-02-02T23:04:31.656Z,-0.71
2023-02-02T23:09:34.347Z,-0.77
2023-02-02T23:14:37.072Z,-0.81
2023-02-02T23:19:39.899Z,-0.87
2023-02-02T23:24:42.864Z,-0.95
2023-02-02T23:29:45.565Z,-1.02
2023-02-02T23:34:48.243Z,-1.05
2023-02-02T23:39:50.914Z,-1.10
2023-02-02T23:44:53.696Z,-1.14
2023-02-02T23:49:56.445Z,-1.17
2023-02-02T23:55:01.404Z,-1.20
